createdAt,value
2022-10-18T00:02:12.289Z,14.88
2022-10-18T00:04:39.040Z,14.63
2022-10-18T00:07:05.710Z,10.73
2022-10-18T00:09:32.458Z,9.68
2022-10-18T00:11:59.206Z,6.75
2022-10-18T00:14:25.832Z,5.70
2022-10-18T00:16:52.446Z,6.13
2022-10-18T00:19:19.092Z,7.10
2022-10-18T00:21:45.750Z,11.63
2022-10-18T00:24:12.402Z,14.80
2022-10-18T00:26:39.025Z,22.38
2022-10-18T00:29:06.535Z,20.33
2022-10-18T00:31:37.413Z,22.73
2022-10-18T00:34:15.316Z,22.17
2022-10-18T00:36:42.424Z,26.58
2022-10-18T00:39:10.866Z,38.22
2022-10-18T00:41:38.154Z,28.08
2022-10-18T00:44:10.897Z,33.95
2022-10-18T00:46:42.649Z,39.40
2022-10-18T00:49:31.424Z,32.03
2022-10-18T00:52:05.394Z,28.02
2022-10-18T00:54:34.049Z,29.00
2022-10-18T00:57:01.372Z,23.40
2022-10-18T00:59:28.534Z,19.65
2022-10-18T01:01:55.258Z,13.73
2022-10-18T01:04:22.596Z,15.57
2022-10-18T01:07:23.271Z,11.52
2022-10-18T01:10:14.153Z,11.85
2022-10-18T01:13:11.366Z,34.08
2022-10-18T01:15:40.682Z,54.92
2022-10-18T01:18:20.616Z,61.65
2022-10-18T01:20:56.206Z,47.45
2022-10-18T01:23:41.251Z,35.85
2022-10-18T01:26:22.830Z,34.42
2022-10-18T01:31:30.011Z,34.88
2022-10-18T01:34:05.712Z,25.42
2022-10-18T01:36:36.762Z,26.75
2022-10-18T01:39:07.915Z,26.20
2022-10-18T01:41:36.124Z,13.82
2022-10-18T01:44:04.990Z,15.20
2022-10-18T01:46:32.847Z,19.92
2022-10-18T01:48:59.747Z,21.52
2022-10-18T01:51:29.413Z,18.90
2022-10-18T01:53:56.500Z,15.55
2022-10-18T01:56:33.984Z,16.13
2022-10-18T01:59:13.452Z,15.23
2022-10-18T02:02:07.206Z,14.15
2022-10-18T02:04:45.959Z,13.05
2022-10-18T02:07:34.597Z,13.02
2022-10-18T02:10:04.336Z,13.13
2022-10-18T02:12:32.587Z,12.93
2022-10-18T02:15:00.979Z,15.45
2022-10-18T02:17:29.110Z,12.60
2022-10-18T02:19:57.554Z,11.75
2022-10-18T02:22:26.933Z,12.82
2022-10-18T02:24:55.300Z,18.00
2022-10-18T02:27:22.483Z,19.40
2022-10-18T02:29:49.544Z,14.07
2022-10-18T02:32:16.165Z,12.30
2022-10-18T02:34:46.457Z,12.60
2022-10-18T02:37:13.648Z,13.57
2022-10-18T02:39:49.050Z,11.90
2022-10-18T02:42:16.081Z,11.20
2022-10-18T02:44:43.017Z,12.48
2022-10-18T02:47:10.731Z,11.27
2022-10-18T02:49:37.377Z,11.10
2022-10-18T02:52:04.305Z,13.63
2022-10-18T02:54:31.030Z,13.57
2022-10-18T02:56:57.716Z,37.20
2022-10-18T02:59:24.981Z,46.17
2022-10-18T03:01:51.656Z,46.30
2022-10-18T03:04:18.634Z,39.25
2022-10-18T03:06:45.273Z,28.60
2022-10-18T03:09:11.946Z,24.33
2022-10-18T03:11:38.558Z,19.58
2022-10-18T03:14:05.173Z,16.17
2022-10-18T03:16:31.868Z,15.70
2022-10-18T03:18:58.490Z,13.63
2022-10-18T03:21:25.161Z,12.25
2022-10-18T03:23:51.938Z,13.23
2022-10-18T03:26:18.591Z,14.40
2022-10-18T03:28:45.253Z,12.48
2022-10-18T03:31:11.931Z,11.60
2022-10-18T03:33:38.615Z,12.38
2022-10-18T03:36:05.476Z,12.77
2022-10-18T03:38:32.160Z,13.48
2022-10-18T03:40:58.826Z,12.80
2022-10-18T03:43:25.517Z,14.55
2022-10-18T03:45:52.251Z,13.23
2022-10-18T03:48:18.926Z,12.02
2022-10-18T03:50:45.561Z,13.15
2022-10-18T03:53:12.214Z,13.25
2022-10-18T03:55:39.041Z,12.30
2022-10-18T03:58:06.376Z,12.57
2022-10-18T04:00:33.417Z,11.82
2022-10-18T04:03:00.053Z,12.07
2022-10-18T04:05:31.369Z,11.57
2022-10-18T04:07:58.416Z,12.52
2022-10-18T04:10:25.633Z,12.63
2022-10-18T04:12:52.494Z,10.48
2022-10-18T04:15:19.219Z,11.32
2022-10-18T04:17:46.142Z,10.95
2022-10-18T04:20:12.895Z,10.68
2022-10-18T04:22:39.599Z,11.75
2022-10-18T04:25:06.471Z,10.88
2022-10-18T04:27:33.325Z,9.95
2022-10-18T04:30:00.244Z,10.00
2022-10-18T04:32:28.964Z,10.93
2022-10-18T04:34:55.582Z,11.40
2022-10-18T04:37:22.242Z,10.80
2022-10-18T04:39:52.591Z,10.88
2022-10-18T04:42:21.017Z,12.50
2022-10-18T04:44:47.772Z,11.32
2022-10-18T04:47:14.493Z,12.00
2022-10-18T04:49:41.209Z,11.60
2022-10-18T04:52:07.933Z,11.77
2022-10-18T04:54:34.646Z,12.10
2022-10-18T04:57:01.313Z,10.73
2022-10-18T04:59:28.116Z,12.20
2022-10-18T05:01:54.871Z,11.73
2022-10-18T05:04:21.610Z,13.75
2022-10-18T05:06:48.457Z,13.15
2022-10-18T05:09:15.190Z,17.33
2022-10-18T05:11:41.880Z,15.10
2022-10-18T05:14:10.276Z,14.85
2022-10-18T05:16:37.148Z,16.77
2022-10-18T05:19:05.651Z,14.70
2022-10-18T05:21:33.022Z,15.52
2022-10-18T05:23:59.795Z,15.10
2022-10-18T05:26:26.621Z,16.92
2022-10-18T05:28:53.412Z,13.27
2022-10-18T05:31:20.161Z,13.88
2022-10-18T05:33:46.873Z,13.63
2022-10-18T05:36:13.543Z,13.43
2022-10-18T05:38:44.036Z,14.35
2022-10-18T05:41:11.283Z,14.57
2022-10-18T05:43:38.785Z,13.90
2022-10-18T05:46:11.885Z,14.85
2022-10-18T05:48:42.221Z,17.25
2022-10-18T05:51:08.857Z,18.90
2022-10-18T05:53:37.097Z,17.80
2022-10-18T05:56:04.696Z,17.50
2022-10-18T05:58:31.464Z,20.42
2022-10-18T06:01:03.125Z,20.20
2022-10-18T06:03:31.008Z,20.55
2022-10-18T06:06:01.846Z,16.23
2022-10-18T06:08:28.562Z,13.02
2022-10-18T06:10:55.399Z,15.02
2022-10-18T06:13:22.025Z,12.45
2022-10-18T06:15:48.749Z,12.98
2022-10-18T06:18:15.415Z,13.32
2022-10-18T06:20:42.062Z,14.35
2022-10-18T06:23:08.673Z,14.93
2022-10-18T06:25:35.414Z,13.65
2022-10-18T06:28:05.998Z,15.57
2022-10-18T06:30:35.245Z,16.13
2022-10-18T06:33:01.977Z,14.60
2022-10-18T06:35:29.003Z,15.95
2022-10-18T06:37:55.611Z,12.98
2022-10-18T06:40:22.297Z,13.57
2022-10-18T06:42:59.944Z,13.52
2022-10-18T06:45:27.483Z,13.82
2022-10-18T06:47:54.105Z,13.32
2022-10-18T06:50:20.772Z,13.00
2022-10-18T06:52:48.925Z,11.82
2022-10-18T06:55:15.613Z,12.95
2022-10-18T06:57:42.239Z,12.73
2022-10-18T07:00:09.469Z,11.07
2022-10-18T07:02:37.486Z,12.20
2022-10-18T07:05:04.354Z,12.32
2022-10-18T07:07:32.029Z,12.02
2022-10-18T07:09:59.102Z,10.93
2022-10-18T07:12:25.746Z,11.43
2022-10-18T07:14:52.363Z,11.25
2022-10-18T07:17:18.985Z,11.40
2022-10-18T07:19:45.618Z,12.45
2022-10-18T07:22:12.276Z,11.68
2022-10-18T07:24:39.010Z,11.07
2022-10-18T07:27:05.880Z,10.02
2022-10-18T07:29:32.647Z,11.02
2022-10-18T07:31:59.301Z,10.82
2022-10-18T07:34:25.957Z,11.43
2022-10-18T07:36:52.583Z,13.10
2022-10-18T07:39:19.252Z,9.93
2022-10-18T07:41:46.026Z,9.48
2022-10-18T07:44:12.658Z,8.90
2022-10-18T07:46:39.590Z,7.50
2022-10-18T07:49:06.326Z,6.25
2022-10-18T07:51:34.782Z,11.77
2022-10-18T07:54:01.943Z,9.85
2022-10-18T07:56:28.693Z,8.75
2022-10-18T07:58:56.496Z,9.82
2022-10-18T08:01:24.347Z,8.52
2022-10-18T08:03:51.802Z,8.02
2022-10-18T08:06:19.619Z,3.00
2022-10-18T08:08:46.405Z,3.50
2022-10-18T08:11:15.482Z,2.58
2022-10-18T08:13:42.880Z,2.65
2022-10-18T08:16:11.975Z,2.20
2022-10-18T08:18:38.788Z,2.40
2022-10-18T08:21:07.768Z,1.67
2022-10-18T08:23:34.862Z,1.70
2022-10-18T08:26:05.861Z,2.53
2022-10-18T08:28:32.628Z,2.08
2022-10-18T08:31:03.819Z,3.80
2022-10-18T08:33:30.616Z,2.20
2022-10-18T08:35:58.105Z,3.05
2022-10-18T08:38:24.951Z,2.78
2022-10-18T08:40:51.707Z,46.42
2022-10-18T08:43:38.233Z,3.67
2022-10-18T08:46:04.964Z,1.90
2022-10-18T08:48:39.345Z,4.20
2022-10-18T08:51:17.892Z,1.80
2022-10-18T08:53:54.556Z,2.30
2022-10-18T08:56:24.918Z,2.05
2022-10-18T08:58:51.576Z,1.80
2022-10-18T09:01:36.634Z,2.22
2022-10-18T09:04:18.687Z,1.77
2022-10-18T09:06:57.684Z,2.47
2022-10-18T09:09:30.244Z,2.13
2022-10-18T09:12:34.519Z,2.30
2022-10-18T09:15:22.492Z,1.80
2022-10-18T09:18:30.695Z,2.38
2022-10-18T09:20:59.786Z,1.70
2022-10-18T09:23:46.667Z,1.70
2022-10-18T09:26:32.142Z,1.60
2022-10-18T09:29:07.770Z,1.70
2022-10-18T09:32:06.859Z,2.30
2022-10-18T09:34:50.748Z,2.05
2022-10-18T09:37:19.870Z,1.50
2022-10-18T09:39:48.828Z,1.48
2022-10-18T09:44:51.487Z,1.50
2022-10-18T09:47:40.474Z,1.70
2022-10-18T09:50:27.280Z,2.25
2022-10-18T09:53:25.543Z,1.80
2022-10-18T09:55:58.134Z,1.83
2022-10-18T09:58:27.609Z,1.77
2022-10-18T10:00:55.532Z,1.80
2022-10-18T10:03:22.189Z,1.92
2022-10-18T10:06:02.691Z,1.60
2022-10-18T10:08:35.427Z,1.40
2022-10-18T10:11:02.118Z,1.90
2022-10-18T10:13:28.826Z,1.85
2022-10-18T10:15:58.146Z,2.35
2022-10-18T10:18:39.031Z,1.70
2022-10-18T10:21:07.958Z,1.88
2022-10-18T10:26:28.224Z,1.58
2022-10-18T10:28:55.246Z,1.95
2022-10-18T10:31:24.700Z,1.73
2022-10-18T10:34:14.155Z,1.67
2022-10-18T10:36:51.819Z,2.05
2022-10-18T10:39:19.742Z,1.70
2022-10-18T10:41:53.997Z,1.70
2022-10-18T10:44:29.478Z,1.55
2022-10-18T10:46:56.626Z,1.73
2022-10-18T10:49:45.242Z,1.60
2022-10-18T10:52:28.047Z,2.00
2022-10-18T10:55:05.753Z,1.50
2022-10-18T10:57:38.693Z,1.70
2022-10-18T11:00:05.717Z,1.92
2022-10-18T11:02:34.914Z,2.13
2022-10-18T11:05:27.213Z,1.77
2022-10-18T11:07:57.094Z,2.33
2022-10-18T11:10:26.125Z,1.70
2022-10-18T11:13:02.638Z,1.90
2022-10-18T11:15:52.437Z,1.90
2022-10-18T11:18:24.368Z,2.10
2022-10-18T11:21:08.217Z,1.88
2022-10-18T11:23:37.623Z,2.80
2022-10-18T11:26:13.183Z,2.13
2022-10-18T11:28:48.607Z,2.78
2022-10-18T11:31:18.499Z,1.95
2022-10-18T11:34:09.199Z,2.22
2022-10-18T11:36:36.819Z,1.90
2022-10-18T11:39:13.702Z,1.83
2022-10-18T11:41:51.425Z,3.00
2022-10-18T11:44:57.314Z,3.13
2022-10-18T11:50:09.682Z,2.00
2022-10-18T11:52:48.423Z,1.83
2022-10-18T11:55:30.297Z,1.52
2022-10-18T11:58:47.308Z,2.08
2022-10-18T12:01:28.984Z,1.77
2022-10-18T12:04:04.313Z,1.60
2022-10-18T12:06:35.479Z,1.52
2022-10-18T12:09:23.775Z,1.75
2022-10-18T12:11:55.713Z,1.70
2022-10-18T12:14:31.277Z,1.90
2022-10-18T12:17:35.870Z,2.17
2022-10-18T12:19:51.897Z,1.85
2022-10-18T12:22:28.885Z,1.65
2022-10-18T12:24:55.537Z,4.13
2022-10-18T12:27:32.789Z,3.95
2022-10-18T12:30:05.396Z,2.50
2022-10-18T12:32:35.251Z,2.05
2022-10-18T12:35:06.517Z,1.92
2022-10-18T12:37:56.259Z,2.13
2022-10-18T12:40:46.303Z,1.60
2022-10-18T12:43:22.917Z,1.55
2022-10-18T12:45:54.960Z,2.03
2022-10-18T12:48:29.554Z,1.92
2022-10-18T12:51:04.267Z,1.83
2022-10-18T12:53:31.840Z,1.65
2022-10-18T12:56:27.771Z,1.65
2022-10-18T12:59:15.908Z,1.95
2022-10-18T13:01:51.727Z,1.83
2022-10-18T13:04:27.209Z,1.75
2022-10-18T13:06:59.876Z,1.20
2022-10-18T13:09:36.699Z,1.40
2022-10-18T13:12:09.381Z,1.60
2022-10-18T13:15:05.980Z,1.73
2022-10-18T13:17:53.849Z,2.42
2022-10-18T13:20:49.326Z,2.05
2022-10-18T13:23:41.087Z,2.10
2022-10-18T13:26:23.058Z,1.65
2022-10-18T13:29:31.349Z,3.20
2022-10-18T13:32:14.292Z,1.90
2022-10-18T13:34:41.128Z,1.98
2022-10-18T13:37:10.735Z,1.55
2022-10-18T13:39:38.620Z,1.77
2022-10-18T13:42:14.310Z,1.60
2022-10-18T13:44:43.609Z,1.63
2022-10-18T13:47:15.454Z,1.60
2022-10-18T13:50:37.718Z,1.80
2022-10-18T13:53:30.206Z,1.90
2022-10-18T13:56:28.704Z,1.50
2022-10-18T13:59:21.356Z,1.60
2022-10-18T14:02:22.367Z,1.65
2022-10-18T14:05:24.640Z,1.95
2022-10-18T14:07:58.663Z,1.63
2022-10-18T14:10:57.190Z,2.35
2022-10-18T14:13:31.166Z,1.80
2022-10-18T14:16:04.865Z,1.60
2022-10-18T14:18:33.562Z,2.15
2022-10-18T14:21:30.246Z,2.53
2022-10-18T14:23:57.961Z,3.10
2022-10-18T14:26:25.891Z,3.38
2022-10-18T14:29:19.601Z,5.25
2022-10-18T14:31:53.130Z,4.28
2022-10-18T14:34:19.943Z,2.70
2022-10-18T14:36:48.238Z,2.05
2022-10-18T14:39:28.178Z,3.10
2022-10-18T14:41:57.172Z,2.47
2022-10-18T14:47:14.029Z,2.75
2022-10-18T14:49:45.287Z,1.80
2022-10-18T14:52:35.316Z,2.15
2022-10-18T14:55:04.825Z,1.70
2022-10-18T15:00:08.228Z,2.35
2022-10-18T15:02:39.534Z,3.05
2022-10-18T15:05:09.529Z,3.25
2022-10-18T15:07:37.475Z,2.15
2022-10-18T15:10:05.761Z,2.35
2022-10-18T15:12:36.907Z,2.67
2022-10-18T15:15:21.523Z,2.80
2022-10-18T15:17:49.152Z,2.25
2022-10-18T15:20:25.443Z,2.50
2022-10-18T15:22:53.385Z,2.15
2022-10-18T15:25:31.517Z,7.05
2022-10-18T15:28:00.043Z,2.75
2022-10-18T15:30:38.664Z,2.72
2022-10-18T15:33:10.545Z,3.17
2022-10-18T15:35:39.362Z,4.40
2022-10-18T15:38:21.269Z,8.02
2022-10-18T15:40:48.281Z,3.75
2022-10-18T15:43:24.259Z,3.85
2022-10-18T15:45:53.376Z,3.47
2022-10-18T15:50:57.950Z,13.98
2022-10-18T15:53:44.446Z,5.00
2022-10-18T15:56:32.338Z,4.93
2022-10-18T15:59:01.060Z,5.22
2022-10-18T16:01:37.817Z,5.50
2022-10-18T16:04:26.640Z,5.28
2022-10-18T16:06:55.513Z,6.90
2022-10-18T16:09:24.050Z,8.75
2022-10-18T16:11:56.773Z,8.05
2022-10-18T16:14:24.906Z,6.57
2022-10-18T16:16:54.654Z,4.13
2022-10-18T16:19:22.773Z,5.97
2022-10-18T16:21:50.462Z,5.57
2022-10-18T16:24:17.768Z,5.82
2022-10-18T16:27:00.131Z,5.57
2022-10-18T16:29:28.833Z,6.68
2022-10-18T16:31:58.367Z,6.00
2022-10-18T16:34:29.147Z,8.27
2022-10-18T16:36:55.852Z,7.82
2022-10-18T16:39:22.970Z,5.88
2022-10-18T16:41:49.813Z,7.22
2022-10-18T16:44:17.274Z,7.13
2022-10-18T16:46:44.205Z,6.25
2022-10-18T16:49:25.500Z,7.55
2022-10-18T16:51:53.584Z,6.40
2022-10-18T16:54:20.567Z,7.88
2022-10-18T16:56:50.383Z,8.10
2022-10-18T16:59:28.925Z,10.23
2022-10-18T17:01:55.853Z,7.40
2022-10-18T17:04:22.609Z,7.05
2022-10-18T17:06:49.494Z,5.10
2022-10-18T17:09:16.335Z,5.95
2022-10-18T17:11:43.310Z,6.82
2022-10-18T17:14:09.958Z,4.90
2022-10-18T17:16:39.052Z,5.43
2022-10-18T17:19:07.973Z,4.43
2022-10-18T17:21:34.758Z,5.35
2022-10-18T17:24:03.147Z,5.38
2022-10-18T17:26:30.756Z,4.20
2022-10-18T17:29:02.610Z,3.97
2022-10-18T17:31:30.493Z,4.53
2022-10-18T17:33:58.764Z,5.20
2022-10-18T17:36:25.968Z,4.93
2022-10-18T17:38:54.047Z,4.72
2022-10-18T17:41:21.144Z,5.30
2022-10-18T17:43:48.631Z,4.50
2022-10-18T17:46:16.015Z,4.40
2022-10-18T17:48:42.813Z,5.10
2022-10-18T17:51:15.068Z,8.45
2022-10-18T17:53:41.849Z,5.15
2022-10-18T17:56:08.657Z,3.70
2022-10-18T17:58:35.545Z,3.50
2022-10-18T18:01:13.889Z,3.45
2022-10-18T18:03:41.140Z,2.80
2022-10-18T18:06:13.737Z,3.65
2022-10-18T18:08:40.387Z,3.20
2022-10-18T18:11:07.211Z,3.22
2022-10-18T18:13:33.859Z,3.70
2022-10-18T18:16:10.941Z,3.67
2022-10-18T18:18:37.616Z,2.90
2022-10-18T18:21:04.425Z,3.35
2022-10-18T18:23:31.057Z,3.10
2022-10-18T18:25:58.279Z,2.80
2022-10-18T18:28:24.956Z,2.97
2022-10-18T18:30:51.683Z,3.30
2022-10-18T18:33:18.424Z,3.38
2022-10-18T18:35:54.548Z,4.25
2022-10-18T18:38:21.234Z,3.10
2022-10-18T18:40:47.900Z,3.10
2022-10-18T18:43:29.165Z,3.83
2022-10-18T18:45:55.857Z,9.45
2022-10-18T18:48:22.565Z,11.57
2022-10-18T18:50:50.758Z,11.73
2022-10-18T18:53:17.951Z,11.50
2022-10-18T18:55:44.685Z,11.52
2022-10-18T18:58:11.902Z,14.27
2022-10-18T19:00:43.387Z,11.00
2022-10-18T19:03:12.049Z,10.73
2022-10-18T19:05:38.722Z,15.75
2022-10-18T19:08:05.688Z,13.98
2022-10-18T19:10:32.530Z,10.50
2022-10-18T19:12:59.228Z,12.95
2022-10-18T19:15:25.907Z,10.07
2022-10-18T19:17:52.606Z,9.65
2022-10-18T19:20:19.336Z,10.85
2022-10-18T19:22:46.123Z,9.90
2022-10-18T19:25:13.134Z,10.30
2022-10-18T19:27:39.926Z,10.77
2022-10-18T19:30:09.385Z,10.95
2022-10-18T19:32:36.059Z,11.32
2022-10-18T19:35:02.754Z,12.73
2022-10-18T19:37:29.559Z,13.27
2022-10-18T19:39:56.298Z,13.52
2022-10-18T19:42:31.513Z,12.13
2022-10-18T19:44:58.475Z,16.52
2022-10-18T19:47:25.154Z,12.38
2022-10-18T19:49:53.846Z,11.23
2022-10-18T19:52:20.603Z,10.50
2022-10-18T19:54:48.875Z,11.38
2022-10-18T19:57:15.821Z,11.85
2022-10-18T19:59:42.580Z,9.65
2022-10-18T20:02:13.273Z,9.10
2022-10-18T20:04:39.956Z,8.85
2022-10-18T20:07:06.677Z,9.52
2022-10-18T20:09:33.874Z,8.90
2022-10-18T20:12:00.563Z,8.25
2022-10-18T20:14:27.331Z,8.75
2022-10-18T20:16:54.019Z,9.73
2022-10-18T20:19:20.735Z,9.85
2022-10-18T20:21:47.365Z,8.70
2022-10-18T20:24:14.027Z,9.85
2022-10-18T20:26:40.877Z,8.93
2022-10-18T20:29:08.243Z,8.75
2022-10-18T20:31:38.363Z,9.68
2022-10-18T20:34:07.921Z,9.32
2022-10-18T20:36:35.072Z,9.50
2022-10-18T20:39:02.410Z,10.10
2022-10-18T20:41:31.115Z,9.45
2022-10-18T20:44:10.729Z,9.52
2022-10-18T20:46:38.609Z,15.35
2022-10-18T20:49:07.076Z,13.13
2022-10-18T20:51:34.234Z,11.20
2022-10-18T20:54:07.042Z,12.38
2022-10-18T20:56:35.515Z,12.70
2022-10-18T20:59:02.812Z,13.25
2022-10-18T21:01:31.422Z,12.60
2022-10-18T21:04:00.294Z,12.82
2022-10-18T21:06:35.285Z,17.02
2022-10-18T21:09:07.523Z,15.90
2022-10-18T21:11:39.301Z,17.83
2022-10-18T21:14:07.282Z,23.20
2022-10-18T21:16:35.532Z,24.40
2022-10-18T21:19:08.228Z,21.17
2022-10-18T21:21:35.445Z,22.42
2022-10-18T21:24:05.386Z,22.73
2022-10-18T21:26:34.510Z,22.77
2022-10-18T21:29:01.296Z,22.00
2022-10-18T21:31:37.807Z,21.30
2022-10-18T21:34:06.512Z,22.10
2022-10-18T21:36:35.940Z,21.50
2022-10-18T21:39:07.205Z,21.50
2022-10-18T21:41:34.445Z,20.40
2022-10-18T21:44:03.525Z,18.67
2022-10-18T21:46:32.486Z,16.92
2022-10-18T21:48:59.178Z,15.68
2022-10-18T21:51:27.692Z,15.35
2022-10-18T21:53:56.473Z,14.60
2022-10-18T21:56:28.088Z,11.82
2022-10-18T21:58:55.303Z,10.07
2022-10-18T22:01:27.905Z,10.25
2022-10-18T22:03:56.501Z,10.00
2022-10-18T22:06:24.282Z,10.95
2022-10-18T22:08:56.167Z,9.95
2022-10-18T22:11:28.957Z,9.93
2022-10-18T22:13:55.735Z,10.02
2022-10-18T22:16:22.729Z,10.00
2022-10-18T22:18:50.701Z,9.98
2022-10-18T22:21:19.313Z,10.32
2022-10-18T22:23:48.101Z,9.48
2022-10-18T22:26:18.877Z,10.13
2022-10-18T22:28:45.966Z,10.32
2022-10-18T22:31:21.327Z,9.93
2022-10-18T22:33:58.988Z,10.32
2022-10-18T22:36:25.970Z,9.52
2022-10-18T22:38:53.146Z,10.00
2022-10-18T22:41:20.316Z,11.80
2022-10-18T22:43:49.923Z,19.00
2022-10-18T22:46:16.886Z,26.30
2022-10-18T22:48:44.081Z,25.00
2022-10-18T22:51:11.429Z,25.88
2022-10-18T22:53:39.717Z,21.30
2022-10-18T22:56:06.861Z,12.27
2022-10-18T22:58:33.577Z,11.73
2022-10-18T23:01:11.508Z,10.93
2022-10-18T23:03:38.829Z,9.38
2022-10-18T23:06:06.462Z,8.82
2022-10-18T23:08:33.462Z,9.50
2022-10-18T23:11:00.347Z,8.82
2022-10-18T23:13:27.791Z,8.77
2022-10-18T23:16:04.394Z,8.18
2022-10-18T23:18:32.235Z,7.45
2022-10-18T23:21:07.091Z,7.95
2022-10-18T23:23:35.669Z,9.73
2022-10-18T23:26:22.787Z,8.70
2022-10-18T23:28:50.918Z,7.90
2022-10-18T23:31:23.220Z,7.75
2022-10-18T23:33:52.063Z,7.70
2022-10-18T23:36:18.961Z,8.52
2022-10-18T23:38:45.620Z,8.52
2022-10-18T23:41:13.692Z,12.77
2022-10-18T23:43:40.701Z,7.57
2022-10-18T23:46:07.831Z,7.10
2022-10-18T23:48:34.748Z,6.68
2022-10-18T23:51:02.309Z,6.90
2022-10-18T23:53:29.062Z,7.03
2022-10-18T23:56:00.739Z,7.20
2022-10-18T23:58:28.721Z,6.57
